Time;durP1;ratioP1;P1;durP2;ratioP2;P2;SDS_P1;SDS_P2;PMS_P1;PMS_P2;Temp;Humidity;BMP_temperature;BMP_pressure;BME280_temperature;BME280_humidity;BME280_pressure;Samples;Min_cycle;Max_cycle;Signal;HPM_P1;HPM_P2
2022/03/02 00:00:06;;;;;;;11.00;5.63;;;;;;;;;;4913155;29;20474;-73
2022/03/02 00:02:32;;;;;;;8.70;5.57;;;;;;;;;;4907173;29;20047;-75
2022/03/02 00:04:57;;;;;;;9.32;5.43;;;;;;;;;;4912145;29;20040;-75
2022/03/02 00:07:23;;;;;;;12.90;5.30;;;;;;;;;;4909998;29;20289;-75
2022/03/02 00:09:48;;;;;;;10.45;4.75;;;;;;;;;;4906977;29;20131;-74
2022/03/02 00:12:14;;;;;;;5.60;3.97;;;;;;;;;;4906839;29;20039;-75
2022/03/02 00:14:40;;;;;;;11.63;5.57;;;;;;;;;;4912286;29;20043;-74
2022/03/02 00:17:05;;;;;;;9.95;4.82;;;;;;;;;;4911153;29;20091;-73
2022/03/02 00:19:31;;;;;;;8.25;5.00;;;;;;;;;;4906520;29;20035;-73
2022/03/02 00:21:56;;;;;;;9.18;5.35;;;;;;;;;;4906159;29;20453;-75
2022/03/02 00:24:22;;;;;;;10.77;5.32;;;;;;;;;;4907009;29;20046;-73
2022/03/02 00:26:48;;;;;;;8.65;5.20;;;;;;;;;;4905790;29;20032;-74
2022/03/02 00:29:14;;;;;;;8.30;5.00;;;;;;;;;;4909999;29;20157;-75
2022/03/02 00:31:39;;;;;;;8.82;4.85;;;;;;;;;;4904330;29;20039;-74
2022/03/02 00:34:05;;;;;;;11.60;5.25;;;;;;;;;;4910728;29;20044;-73
2022/03/02 00:36:30;;;;;;;7.95;5.70;;;;;;;;;;4916157;29;20071;-76
2022/03/02 00:38:57;;;;;;;10.35;5.38;;;;;;;;;;4909936;29;20143;-75
2022/03/02 00:41:22;;;;;;;9.65;5.55;;;;;;;;;;4906587;29;21044;-73
2022/03/02 00:43:48;;;;;;;8.27;4.93;;;;;;;;;;4906395;29;20040;-75
2022/03/02 00:46:14;;;;;;;10.98;5.68;;;;;;;;;;4912088;29;20044;-75
2022/03/02 00:48:40;;;;;;;9.68;5.43;;;;;;;;;;4907157;29;20530;-74
2022/03/02 00:51:06;;;;;;;9.52;5.25;;;;;;;;;;4894508;29;20135;-75
2022/03/02 00:53:32;;;;;;;14.43;5.75;;;;;;;;;;4906364;29;20091;-76
2022/03/02 00:55:57;;;;;;;14.55;7.60;;;;;;;;;;4906179;29;20036;-74
2022/03/02 00:58:23;;;;;;;28.60;13.73;;;;;;;;;;4912036;29;20127;-73
2022/03/02 01:00:49;;;;;;;115.93;45.15;;;;;;;;;;4911324;29;20043;-75
2022/03/02 01:03:14;;;;;;;31.30;14.68;;;;;;;;;;4907217;29;20040;-76
2022/03/02 01:05:39;;;;;;;16.10;7.80;;;;;;;;;;4905764;29;20051;-75
2022/03/02 01:08:06;;;;;;;17.40;6.38;;;;;;;;;;4911820;29;20039;-75
2022/03/02 01:10:31;;;;;;;12.43;6.22;;;;;;;;;;4905301;29;20047;-74
2022/03/02 01:12:57;;;;;;;25.60;12.27;;;;;;;;;;4908253;29;20044;-75
2022/03/02 01:15:23;;;;;;;9.38;6.25;;;;;;;;;;4905744;29;20047;-75
2022/03/02 01:17:48;;;;;;;8.10;5.13;;;;;;;;;;4905859;29;20044;-75
2022/03/02 01:20:14;;;;;;;9.90;5.93;;;;;;;;;;4905348;29;20130;-75
2022/03/02 01:22:40;;;;;;;14.82;5.53;;;;;;;;;;4910317;29;20437;-74
2022/03/02 01:25:08;;;;;;;7.95;4.55;;;;;;;;;;4905572;29;20040;-76
2022/03/02 01:27:33;;;;;;;8.13;5.13;;;;;;;;;;4905499;29;20044;-74
2022/03/02 01:29:59;;;;;;;7.97;5.47;;;;;;;;;;4905603;29;20107;-74
2022/03/02 01:32:24;;;;;;;10.55;5.35;;;;;;;;;;4910255;29;20036;-74
2022/03/02 01:34:50;;;;;;;9.88;5.47;;;;;;;;;;4905552;29;20123;-74
2022/03/02 01:37:16;;;;;;;11.70;6.13;;;;;;;;;;4905366;29;20129;-76
2022/03/02 01:39:42;;;;;;;8.50;6.15;;;;;;;;;;4905110;29;20050;-76
2022/03/02 01:42:09;;;;;;;12.88;5.78;;;;;;;;;;4905029;29;20039;-75
2022/03/02 01:44:35;;;;;;;9.00;5.57;;;;;;;;;;4905294;29;20142;-76
2022/03/02 01:47:02;;;;;;;11.13;5.50;;;;;;;;;;4905238;29;20410;-75
2022/03/02 01:49:28;;;;;;;10.40;6.47;;;;;;;;;;4905133;29;20059;-76
2022/03/02 01:51:54;;;;;;;14.40;6.75;;;;;;;;;;4905223;29;20043;-73
2022/03/02 01:54:19;;;;;;;13.02;5.97;;;;;;;;;;4909846;29;20055;-76
2022/03/02 01:56:45;;;;;;;10.43;6.50;;;;;;;;;;4905102;29;20135;-75
2022/03/02 01:59:11;;;;;;;14.75;6.60;;;;;;;;;;4905451;29;20051;-74
2022/03/02 02:01:40;;;;;;;11.88;6.07;;;;;;;;;;4905540;29;20149;-75
2022/03/02 02:04:06;;;;;;;12.40;6.20;;;;;;;;;;4904889;29;20048;-74
2022/03/02 02:06:31;;;;;;;10.38;6.32;;;;;;;;;;4910144;29;20055;-74
2022/03/02 02:09:01;;;;;;;12.27;6.38;;;;;;;;;;4904862;29;20044;-76
2022/03/02 02:11:27;;;;;;;10.32;5.82;;;;;;;;;;4905031;29;20036;-75
2022/03/02 02:13:53;;;;;;;10.98;5.60;;;;;;;;;;4905295;29;20099;-73
2022/03/02 02:16:22;;;;;;;11.18;5.38;;;;;;;;;;4901399;29;20032;-73
2022/03/02 02:18:50;;;;;;;8.82;5.90;;;;;;;;;;4904832;29;20036;-76
2022/03/02 02:21:16;;;;;;;8.18;5.05;;;;;;;;;;4904923;29;20059;-75
2022/03/02 02:23:41;;;;;;;8.63;5.47;;;;;;;;;;4905330;29;20044;-76
2022/03/02 02:26:07;;;;;;;8.25;5.85;;;;;;;;;;4887010;29;20050;-74
2022/03/02 02:28:33;;;;;;;12.05;5.43;;;;;;;;;;4909600;29;20379;-76
2022/03/02 02:31:01;;;;;;;10.85;5.53;;;;;;;;;;4904782;29;20123;-75
2022/03/02 02:33:28;;;;;;;12.05;6.65;;;;;;;;;;4909013;29;20504;-74
2022/03/02 02:35:54;;;;;;;12.35;6.47;;;;;;;;;;4904868;29;20390;-76
2022/03/02 02:38:21;;;;;;;10.77;5.97;;;;;;;;;;4909677;29;20040;-76
2022/03/02 02:40:48;;;;;;;11.60;6.00;;;;;;;;;;4907398;29;20096;-75
2022/03/02 02:43:15;;;;;;;10.07;6.60;;;;;;;;;;4913585;29;20035;-75
2022/03/02 02:45:41;;;;;;;10.77;6.05;;;;;;;;;;4912520;29;20521;-76
2022/03/02 02:48:06;;;;;;;10.55;5.95;;;;;;;;;;4908284;29;20107;-74
2022/03/02 02:50:33;;;;;;;9.52;5.97;;;;;;;;;;4907681;29;20036;-76
2022/03/02 02:53:02;;;;;;;8.55;5.60;;;;;;;;;;4908337;29;20107;-75
2022/03/02 02:55:29;;;;;;;12.23;6.13;;;;;;;;;;4908499;29;20044;-76
2022/03/02 02:57:55;;;;;;;7.95;5.25;;;;;;;;;;4908007;29;20044;-76
2022/03/02 03:00:23;;;;;;;10.38;5.93;;;;;;;;;;4912522;29;20928;-75
2022/03/02 03:02:51;;;;;;;8.02;5.18;;;;;;;;;;4907917;29;20047;-74
2022/03/02 03:05:20;;;;;;;9.27;5.43;;;;;;;;;;4907987;29;20095;-76
2022/03/02 03:07:46;;;;;;;12.65;6.18;;;;;;;;;;4908137;29;20044;-75
2022/03/02 03:10:13;;;;;;;9.35;6.13;;;;;;;;;;4907089;29;20040;-75
2022/03/02 03:12:39;;;;;;;9.88;5.80;;;;;;;;;;4920575;29;20039;-74
2022/03/02 03:15:07;;;;;;;10.80;6.28;;;;;;;;;;4908408;29;20087;-75
2022/03/02 03:17:33;;;;;;;9.68;4.80;;;;;;;;;;4907649;29;20047;-76
2022/03/02 03:19:58;;;;;;;10.45;6.15;;;;;;;;;;4907801;29;20040;-74
2022/03/02 03:22:24;;;;;;;9.95;5.80;;;;;;;;;;4916766;29;20040;-74
2022/03/02 03:24:50;;;;;;;10.63;5.88;;;;;;;;;;4911120;29;20445;-74
2022/03/02 03:27:16;;;;;;;11.38;6.07;;;;;;;;;;4907259;29;20059;-76
2022/03/02 03:29:41;;;;;;;13.75;7.18;;;;;;;;;;4907667;29;20042;-74
2022/03/02 03:32:07;;;;;;;14.02;6.88;;;;;;;;;;4907370;29;20401;-74
2022/03/02 03:34:33;;;;;;;13.13;6.07;;;;;;;;;;4906258;29;20048;-74
2022/03/02 03:36:58;;;;;;;9.80;6.43;;;;;;;;;;4907565;29;20035;-74
2022/03/02 03:39:24;;;;;;;9.10;5.80;;;;;;;;;;4907544;29;20107;-76
2022/03/02 03:41:49;;;;;;;16.00;6.50;;;;;;;;;;4907644;29;20044;-76
2022/03/02 03:44:15;;;;;;;9.77;5.72;;;;;;;;;;4907917;29;20047;-74
2022/03/02 03:46:40;;;;;;;16.48;6.25;;;;;;;;;;4908704;29;20131;-76
2022/03/02 03:49:06;;;;;;;9.77;5.63;;;;;;;;;;4907051;29;20036;-76
2022/03/02 03:51:31;;;;;;;8.85;5.40;;;;;;;;;;4907618;29;20032;-75
2022/03/02 03:53:57;;;;;;;14.43;6.00;;;;;;;;;;4907141;29;20466;-75
2022/03/02 03:56:22;;;;;;;12.95;6.00;;;;;;;;;;4905204;29;20379;-75
2022/03/02 03:58:48;;;;;;;8.30;5.55;;;;;;;;;;4907307;29;20052;-76
2022/03/02 04:01:14;;;;;;;9.40;5.75;;;;;;;;;;4907182;29;20209;-75
2022/03/02 04:03:39;;;;;;;8.43;5.38;;;;;;;;;;4910942;29;20409;-74
2022/03/02 04:06:05;;;;;;;8.68;5.72;;;;;;;;;;4906086;29;20040;-74
2022/03/02 04:08:30;;;;;;;12.95;5.30;;;;;;;;;;4910050;29;20413;-75
2022/03/02 04:10:56;;;;;;;9.77;6.07;;;;;;;;;;4909359;29;20054;-75
2022/03/02 04:13:21;;;;;;;9.60;5.20;;;;;;;;;;4907115;29;20031;-76
2022/03/02 04:15:47;;;;;;;8.40;5.35;;;;;;;;;;4907307;29;20143;-75
2022/03/02 04:18:12;;;;;;;9.65;6.25;;;;;;;;;;4905945;29;20044;-76
2022/03/02 04:20:38;;;;;;;9.48;5.55;;;;;;;;;;4889696;29;20059;-73
2022/03/02 04:23:05;;;;;;;9.48;5.47;;;;;;;;;;4906921;29;20126;-75
2022/03/02 04:25:31;;;;;;;7.82;4.82;;;;;;;;;;4906609;29;20489;-75
2022/03/02 04:27:56;;;;;;;11.23;4.63;;;;;;;;;;4910703;29;20412;-74
2022/03/02 04:30:22;;;;;;;9.55;5.40;;;;;;;;;;4907789;29;20028;-76
2022/03/02 04:32:48;;;;;;;9.98;5.68;;;;;;;;;;4907170;29;20382;-76
2022/03/02 04:35:13;;;;;;;7.93;4.95;;;;;;;;;;4906368;29;20497;-74
2022/03/02 04:37:40;;;;;;;8.10;5.28;;;;;;;;;;4906835;29;20036;-76
2022/03/02 04:40:10;;;;;;;10.52;5.78;;;;;;;;;;4904043;29;20055;-75
2022/03/02 04:42:36;;;;;;;8.20;5.55;;;;;;;;;;4906675;29;20039;-76
2022/03/02 04:45:02;;;;;;;8.85;5.07;;;;;;;;;;4906289;29;20844;-75
2022/03/02 04:47:28;;;;;;;9.63;5.00;;;;;;;;;;4906376;29;20050;-75
2022/03/02 04:49:53;;;;;;;11.30;5.90;;;;;;;;;;4908911;29;20039;-75
2022/03/02 04:52:19;;;;;;;10.80;5.10;;;;;;;;;;4907811;29;20040;-76
2022/03/02 04:57:29;;;;;;;11.23;6.38;;;;;;;;;;4916914;29;20047;-75
2022/03/02 04:59:55;;;;;;;9.88;5.57;;;;;;;;;;4913806;29;20047;-75
2022/03/02 05:02:20;;;;;;;6.47;4.10;;;;;;;;;;4905645;29;20043;-75
2022/03/02 05:04:46;;;;;;;6.63;4.53;;;;;;;;;;4889260;29;20040;-76
2022/03/02 05:07:11;;;;;;;6.15;3.85;;;;;;;;;;4912725;29;20044;-74
2022/03/02 05:09:37;;;;;;;7.68;4.65;;;;;;;;;;4905727;29;20048;-73
2022/03/02 05:12:03;;;;;;;6.57;4.38;;;;;;;;;;4910455;29;20039;-75
2022/03/02 05:14:30;;;;;;;6.32;3.83;;;;;;;;;;4905678;29;20051;-75
2022/03/02 05:16:55;;;;;;;10.48;5.35;;;;;;;;;;4905882;29;20414;-75
2022/03/02 05:19:20;;;;;;;13.32;5.57;;;;;;;;;;4905862;29;20080;-70
2022/03/02 05:21:47;;;;;;;13.95;5.10;;;;;;;;;;4905850;29;20062;-73
2022/03/02 05:24:14;;;;;;;19.83;5.95;;;;;;;;;;4915804;29;20039;-74
2022/03/02 05:26:39;;;;;;;11.27;5.57;;;;;;;;;;4917216;29;20051;-75
2022/03/02 05:29:05;;;;;;;8.50;5.40;;;;;;;;;;4905523;29;20043;-74
2022/03/02 05:31:30;;;;;;;8.50;5.75;;;;;;;;;;4905840;29;20152;-71
2022/03/02 05:33:56;;;;;;;9.45;5.88;;;;;;;;;;4910219;29;20114;-75
2022/03/02 05:36:21;;;;;;;9.85;5.95;;;;;;;;;;4905389;29;20060;-74
2022/03/02 05:38:47;;;;;;;10.77;5.97;;;;;;;;;;4909054;29;20067;-73
2022/03/02 05:41:12;;;;;;;11.65;6.93;;;;;;;;;;4905588;29;20047;-75
2022/03/02 05:43:38;;;;;;;9.40;5.88;;;;;;;;;;4905439;29;20056;-71
2022/03/02 05:46:03;;;;;;;15.23;6.38;;;;;;;;;;4906202;29;20039;-75
2022/03/02 05:48:29;;;;;;;9.30;6.15;;;;;;;;;;4905088;29;20130;-71
2022/03/02 05:50:54;;;;;;;11.93;6.13;;;;;;;;;;4906962;29;20047;-74
2022/03/02 05:53:19;;;;;;;11.18;5.38;;;;;;;;;;4905709;29;20515;-74
2022/03/02 05:55:45;;;;;;;12.55;6.93;;;;;;;;;;4892069;29;20046;-71
2022/03/02 05:58:10;;;;;;;13.60;6.38;;;;;;;;;;4910624;29;20474;-74
2022/03/02 06:00:36;;;;;;;11.43;6.82;;;;;;;;;;4904794;29;20047;-71
2022/03/02 06:03:02;;;;;;;13.60;6.93;;;;;;;;;;4904978;29;20043;-75
2022/03/02 06:05:28;;;;;;;7.13;4.47;;;;;;;;;;4906984;29;20044;-71
2022/03/02 06:07:53;;;;;;;24.05;7.25;;;;;;;;;;4917115;29;20035;-72
2022/03/02 06:10:19;;;;;;;13.30;6.78;;;;;;;;;;4905118;29;20047;-75
2022/03/02 06:12:46;;;;;;;15.15;7.28;;;;;;;;;;4909065;29;20073;-75
2022/03/02 06:15:12;;;;;;;14.40;7.28;;;;;;;;;;4905808;29;20036;-72
2022/03/02 06:17:39;;;;;;;14.38;7.43;;;;;;;;;;4908257;29;20392;-73
2022/03/02 06:20:05;;;;;;;14.93;7.55;;;;;;;;;;4909138;29;20773;-73
2022/03/02 06:22:31;;;;;;;10.35;6.85;;;;;;;;;;4908653;29;20051;-72
2022/03/02 06:24:58;;;;;;;11.95;7.30;;;;;;;;;;4891498;29;20043;-74
2022/03/02 06:27:23;;;;;;;16.13;7.45;;;;;;;;;;4908451;29;20150;-73
2022/03/02 06:29:49;;;;;;;12.90;7.13;;;;;;;;;;4892076;29;20166;-71
2022/03/02 06:32:15;;;;;;;10.57;6.53;;;;;;;;;;4908537;29;20040;-73
2022/03/02 06:34:42;;;;;;;11.45;6.25;;;;;;;;;;4908990;29;20047;-71
2022/03/02 06:37:07;;;;;;;11.27;5.93;;;;;;;;;;4908945;29;20131;-74
2022/03/02 06:39:33;;;;;;;8.50;5.68;;;;;;;;;;4917851;29;20146;-73
2022/03/02 06:42:18;;;;;;;8.55;5.45;;;;;;;;;;4910963;29;20052;-73
2022/03/02 06:44:59;;;;;;;8.05;5.60;;;;;;;;;;4913057;29;20076;-74
2022/03/02 06:47:31;;;;;;;7.80;5.60;;;;;;;;;;4908272;29;20135;-72
2022/03/02 06:50:08;;;;;;;12.95;5.45;;;;;;;;;;4908351;29;20048;-73
2022/03/02 06:52:37;;;;;;;12.57;5.30;;;;;;;;;;4913767;29;20045;-73
2022/03/02 06:55:06;;;;;;;11.98;5.88;;;;;;;;;;4911143;29;20056;-69
2022/03/02 06:57:32;;;;;;;9.55;5.68;;;;;;;;;;4913752;29;20047;-73
2022/03/02 07:00:18;;;;;;;7.78;5.55;;;;;;;;;;4913978;29;20036;-72
2022/03/02 07:02:57;;;;;;;9.77;5.88;;;;;;;;;;4919867;29;20429;-73
2022/03/02 07:05:22;;;;;;;8.07;5.65;;;;;;;;;;4908867;29;20036;-71
2022/03/02 07:07:48;;;;;;;8.68;5.97;;;;;;;;;;4913713;29;20078;-72
2022/03/02 07:10:14;;;;;;;9.32;6.03;;;;;;;;;;4911738;29;20087;-73
2022/03/02 07:12:40;;;;;;;9.50;5.32;;;;;;;;;;4899760;29;20563;-70
2022/03/02 07:15:07;;;;;;;11.65;5.43;;;;;;;;;;4904163;29;20040;-72
2022/03/02 07:17:32;;;;;;;11.25;5.50;;;;;;;;;;4904600;29;20036;-73
2022/03/02 07:20:00;;;;;;;6.97;5.00;;;;;;;;;;4909718;29;20036;-73
2022/03/02 07:22:31;;;;;;;7.68;4.90;;;;;;;;;;4906390;29;20043;-73
2022/03/02 07:25:10;;;;;;;7.68;4.75;;;;;;;;;;4907702;29;20067;-73
2022/03/02 07:27:40;;;;;;;7.57;4.78;;;;;;;;;;4905422;29;20032;-72
2022/03/02 07:30:07;;;;;;;7.63;4.88;;;;;;;;;;4906473;29;20048;-73
2022/03/02 07:32:35;;;;;;;9.48;4.72;;;;;;;;;;4906381;29;20139;-71
2022/03/02 07:35:03;;;;;;;9.48;5.18;;;;;;;;;;4910988;29;20064;-73
2022/03/02 07:37:29;;;;;;;8.25;4.88;;;;;;;;;;4890983;29;20052;-70
2022/03/02 07:39:55;;;;;;;6.60;4.28;;;;;;;;;;4908728;29;20117;-70
2022/03/02 07:42:21;;;;;;;7.28;5.03;;;;;;;;;;4906448;29;20044;-73
2022/03/02 07:44:48;;;;;;;9.20;4.55;;;;;;;;;;4913801;29;20031;-73
2022/03/02 07:47:14;;;;;;;7.53;4.38;;;;;;;;;;4910607;29;20074;-73
2022/03/02 07:49:40;;;;;;;6.55;4.53;;;;;;;;;;4912368;29;20131;-73
2022/03/02 07:52:06;;;;;;;6.43;4.63;;;;;;;;;;4907748;29;20040;-70
2022/03/02 07:54:37;;;;;;;8.90;4.60;;;;;;;;;;4906231;29;20048;-70
2022/03/02 07:57:04;;;;;;;7.32;4.88;;;;;;;;;;4910394;29;20036;-69
2022/03/02 07:59:34;;;;;;;6.00;4.15;;;;;;;;;;4911808;29;20072;-72
2022/03/02 08:02:02;;;;;;;4.55;3.45;;;;;;;;;;4906241;29;20082;-71
2022/03/02 08:04:28;;;;;;;10.73;4.03;;;;;;;;;;4904701;29;20426;-70
2022/03/02 08:06:54;;;;;;;7.03;4.00;;;;;;;;;;4910060;29;20055;-70
2022/03/02 08:09:19;;;;;;;9.15;4.03;;;;;;;;;;4904022;29;20036;-73
2022/03/02 08:11:46;;;;;;;12.60;3.67;;;;;;;;;;4905928;29;20382;-69
2022/03/02 08:14:11;;;;;;;6.57;4.45;;;;;;;;;;4903022;29;20126;-71
2022/03/02 08:16:37;;;;;;;8.23;4.22;;;;;;;;;;4903815;29;20115;-71
2022/03/02 08:19:04;;;;;;;21.98;3.58;;;;;;;;;;4903700;29;20063;-70
2022/03/02 08:21:32;;;;;;;6.95;4.25;;;;;;;;;;4909381;29;20040;-73
2022/03/02 08:24:02;;;;;;;6.68;3.85;;;;;;;;;;4904172;29;20044;-73
2022/03/02 08:26:30;;;;;;;4.00;2.90;;;;;;;;;;4913676;29;20138;-73
2022/03/02 08:29:01;;;;;;;7.72;4.75;;;;;;;;;;4906662;29;20501;-70
2022/03/02 08:31:27;;;;;;;4.82;3.33;;;;;;;;;;4905352;29;20589;-71
2022/03/02 08:33:53;;;;;;;12.90;5.38;;;;;;;;;;4906804;29;20462;-75
2022/03/02 08:36:22;;;;;;;6.47;4.13;;;;;;;;;;4906561;29;20032;-74
2022/03/02 08:38:50;;;;;;;4.68;3.30;;;;;;;;;;4908256;29;20114;-71
2022/03/02 08:41:17;;;;;;;5.80;4.35;;;;;;;;;;4916756;29;20126;-70
2022/03/02 08:43:44;;;;;;;8.32;4.60;;;;;;;;;;4893596;29;20121;-74
2022/03/02 08:46:10;;;;;;;8.75;4.95;;;;;;;;;;4906069;29;20051;-73
2022/03/02 08:48:35;;;;;;;9.07;4.80;;;;;;;;;;4906590;29;20103;-70
2022/03/02 08:51:03;;;;;;;8.30;4.40;;;;;;;;;;4905980;29;20055;-73
2022/03/02 08:53:31;;;;;;;10.35;4.55;;;;;;;;;;4905469;29;20035;-69
2022/03/02 08:55:59;;;;;;;10.93;5.28;;;;;;;;;;4913296;29;20035;-72
2022/03/02 08:58:26;;;;;;;7.55;4.50;;;;;;;;;;4906042;29;20036;-74
2022/03/02 09:00:52;;;;;;;6.57;4.70;;;;;;;;;;4905323;29;20118;-70
2022/03/02 09:03:18;;;;;;;8.43;4.90;;;;;;;;;;4903848;29;20040;-69
2022/03/02 09:05:45;;;;;;;6.78;4.53;;;;;;;;;;4905265;29;20040;-73
2022/03/02 09:08:12;;;;;;;6.70;4.90;;;;;;;;;;4904529;29;20871;-73
2022/03/02 09:10:37;;;;;;;9.85;5.03;;;;;;;;;;4905601;29;20036;-71
2022/03/02 09:13:22;;;;;;;7.20;4.90;;;;;;;;;;4912136;29;20048;-72
2022/03/02 09:15:47;;;;;;;8.50;5.00;;;;;;;;;;4931865;29;20068;-72
2022/03/02 09:21:59;;;;;;;5.20;4.20;;;;;;;;;;4908936;29;20046;-73
2022/03/02 09:27:35;;;;;;;10.43;4.90;;;;;;;;;;5285210;23;20630;-71
2022/03/02 09:30:06;;;;;;;7.53;4.82;;;;;;;;;;4906927;29;20062;-69
2022/03/02 09:32:33;;;;;;;7.57;4.68;;;;;;;;;;4923062;29;20102;-72
2022/03/02 09:34:59;;;;;;;9.48;5.07;;;;;;;;;;4924241;29;20063;-73
2022/03/02 09:37:27;;;;;;;7.55;4.78;;;;;;;;;;4923438;29;20501;-70
2022/03/02 09:39:53;;;;;;;7.63;4.63;;;;;;;;;;4923430;29;20118;-72
2022/03/02 09:42:45;;;;;;;6.53;4.50;;;;;;;;;;4909740;29;20095;-72
2022/03/02 09:45:11;;;;;;;9.38;4.60;;;;;;;;;;4925675;29;20040;-69
2022/03/02 09:47:45;;;;;;;6.95;4.63;;;;;;;;;;4921566;29;20035;-71
2022/03/02 09:54:00;;;;;;;9.80;4.72;;;;;;;;;;4924742;29;20079;-71
2022/03/02 09:56:29;;;;;;;15.45;4.85;;;;;;;;;;4924510;29;20481;-74
2022/03/02 10:02:44;;;;;;;10.30;5.10;;;;;;;;;;4925430;29;20034;-75
2022/03/02 10:08:02;;;;;;;6.30;4.47;;;;;;;;;;4910063;29;20457;-72
2022/03/02 10:10:33;;;;;;;13.35;4.78;;;;;;;;;;4904585;29;20051;-69
2022/03/02 10:13:01;;;;;;;6.55;4.40;;;;;;;;;;4905406;29;20096;-71
2022/03/02 10:15:27;;;;;;;8.00;4.47;;;;;;;;;;4902524;29;20040;-70
2022/03/02 10:17:53;;;;;;;4.97;4.15;;;;;;;;;;4887703;29;20056;-69
2022/03/02 10:20:22;;;;;;;6.10;4.97;;;;;;;;;;4891814;29;20413;-72
2022/03/02 10:23:09;;;;;;;8.48;4.75;;;;;;;;;;4891553;29;20028;-71
2022/03/02 10:25:51;;;;;;;23.45;4.43;;;;;;;;;;4891261;29;20425;-70
2022/03/02 10:28:27;;;;;;;8.73;4.90;;;;;;;;;;4887446;29;20040;-72
2022/03/02 10:31:13;;;;;;;8.27;4.57;;;;;;;;;;4889368;29;20080;-72
2022/03/02 10:34:01;;;;;;;5.93;4.32;;;;;;;;;;4890443;29;20059;-73
2022/03/02 10:36:29;;;;;;;13.27;3.95;;;;;;;;;;4889678;29;20057;-75
2022/03/02 10:38:58;;;;;;;6.38;4.53;;;;;;;;;;4893367;29;20055;-70
2022/03/02 10:41:25;;;;;;;8.23;5.32;;;;;;;;;;4893101;29;20032;-73
2022/03/02 10:44:01;;;;;;;8.35;4.70;;;;;;;;;;4889179;29;20032;-69
2022/03/02 10:46:27;;;;;;;8.95;4.85;;;;;;;;;;4890274;29;20044;-70
2022/03/02 10:49:07;;;;;;;6.65;4.80;;;;;;;;;;4891329;29;20049;-70
2022/03/02 10:51:35;;;;;;;7.28;4.82;;;;;;;;;;4889161;29;20072;-70
2022/03/02 10:57:35;;;;;;;11.02;4.70;;;;;;;;;;5371931;23;1146688;-69
2022/03/02 11:00:09;;;;;;;6.25;4.15;;;;;;;;;;4904478;29;20957;-72
2022/03/02 11:02:38;;;;;;;9.13;4.60;;;;;;;;;;4921269;29;20063;-71
2022/03/02 11:05:08;;;;;;;6.90;4.50;;;;;;;;;;4920590;29;20122;-71
2022/03/02 11:07:35;;;;;;;6.75;4.45;;;;;;;;;;4905918;29;20075;-71
2022/03/02 11:10:03;;;;;;;5.20;4.55;;;;;;;;;;4906159;29;20127;-71
2022/03/02 11:12:30;;;;;;;6.13;4.70;;;;;;;;;;4905007;29;20056;-71
2022/03/02 11:15:05;;;;;;;5.22;4.07;;;;;;;;;;4911564;29;20047;-72
2022/03/02 11:17:31;;;;;;;5.03;3.97;;;;;;;;;;4908065;29;20131;-71
2022/03/02 11:19:57;;;;;;;5.65;4.30;;;;;;;;;;4907712;29;20282;-71
2022/03/02 11:22:26;;;;;;;8.05;4.22;;;;;;;;;;4907786;29;20044;-71
2022/03/02 11:24:57;;;;;;;6.90;4.70;;;;;;;;;;4907786;29;20048;-71
2022/03/02 11:27:40;;;;;;;7.47;4.68;;;;;;;;;;4908962;29;20040;-71
2022/03/02 11:30:15;;;;;;;7.47;4.80;;;;;;;;;;4907355;29;20042;-71
2022/03/02 11:32:43;;;;;;;9.05;5.85;;;;;;;;;;4907679;29;20118;-71
2022/03/02 11:35:13;;;;;;;8.10;5.20;;;;;;;;;;4908645;29;20141;-70
2022/03/02 11:37:39;;;;;;;5.40;4.38;;;;;;;;;;4917062;29;20078;-70
2022/03/02 11:40:07;;;;;;;5.80;4.45;;;;;;;;;;4907068;29;20451;-71
2022/03/02 11:42:37;;;;;;;8.48;4.93;;;;;;;;;;4908106;29;20581;-71
2022/03/02 11:45:05;;;;;;;7.22;5.20;;;;;;;;;;4907805;29;20052;-72
2022/03/02 11:47:41;;;;;;;8.68;5.38;;;;;;;;;;4911582;29;20527;-71
2022/03/02 11:50:12;;;;;;;7.75;5.25;;;;;;;;;;4911151;29;20044;-71
2022/03/02 11:52:45;;;;;;;7.65;5.40;;;;;;;;;;4907668;29;20046;-71
2022/03/02 11:55:18;;;;;;;7.93;5.70;;;;;;;;;;4907356;29;20095;-73
2022/03/02 11:57:51;;;;;;;8.73;5.72;;;;;;;;;;4910485;29;20032;-71
2022/03/02 12:00:25;;;;;;;6.85;5.05;;;;;;;;;;4907324;29;20285;-69
2022/03/02 12:02:59;;;;;;;5.57;4.82;;;;;;;;;;4906793;29;20048;-69
2022/03/02 12:05:27;;;;;;;7.10;5.13;;;;;;;;;;4906701;29;20051;-70
2022/03/02 12:08:09;;;;;;;6.38;5.20;;;;;;;;;;4906679;29;20406;-70
2022/03/02 12:10:43;;;;;;;6.55;4.80;;;;;;;;;;4912007;29;20413;-69
2022/03/02 12:13:16;;;;;;;8.57;4.50;;;;;;;;;;4907281;29;20040;-69
2022/03/02 12:15:48;;;;;;;6.88;4.90;;;;;;;;;;4907011;29;20062;-69
2022/03/02 12:18:15;;;;;;;7.43;4.88;;;;;;;;;;4906834;29;20482;-69
2022/03/02 12:20:48;;;;;;;6.25;4.35;;;;;;;;;;4909801;29;20408;-69
2022/03/02 12:23:22;;;;;;;11.93;4.70;;;;;;;;;;4889614;29;20040;-68
2022/03/02 12:25:47;;;;;;;6.95;4.38;;;;;;;;;;4908563;29;20048;-70
2022/03/02 12:28:14;;;;;;;5.30;4.07;;;;;;;;;;4904901;29;20047;-70
2022/03/02 12:30:40;;;;;;;5.30;4.20;;;;;;;;;;4904726;29;20936;-71
2022/03/02 12:33:07;;;;;;;10.85;4.50;;;;;;;;;;4906654;29;20050;-70
2022/03/02 12:35:33;;;;;;;7.13;4.68;;;;;;;;;;4909664;29;20063;-70
2022/03/02 12:38:03;;;;;;;6.47;4.18;;;;;;;;;;4908368;29;20063;-70
2022/03/02 12:40:31;;;;;;;6.13;4.88;;;;;;;;;;4909383;29;20047;-70
2022/03/02 12:42:58;;;;;;;6.10;4.10;;;;;;;;;;4908620;29;20043;-70
2022/03/02 12:45:24;;;;;;;7.10;4.07;;;;;;;;;;4907954;29;20039;-70
2022/03/02 12:47:51;;;;;;;13.43;4.57;;;;;;;;;;4906471;29;20051;-71
2022/03/02 12:50:17;;;;;;;14.95;5.65;;;;;;;;;;4905961;29;21054;-71
2022/03/02 12:52:46;;;;;;;7.10;4.90;;;;;;;;;;4906263;29;20040;-71
2022/03/02 12:55:14;;;;;;;8.65;4.45;;;;;;;;;;4905191;29;20075;-71
2022/03/02 12:57:40;;;;;;;6.13;4.55;;;;;;;;;;4909053;29;20032;-71
2022/03/02 13:00:13;;;;;;;6.25;4.78;;;;;;;;;;4912431;29;20050;-71
2022/03/02 13:02:40;;;;;;;7.30;5.30;;;;;;;;;;4906516;29;20055;-71
2022/03/02 13:05:15;;;;;;;6.78;5.00;;;;;;;;;;4905283;29;20028;-71
2022/03/02 13:07:53;;;;;;;9.52;4.82;;;;;;;;;;4905797;29;20036;-71
2022/03/02 13:10:23;;;;;;;9.73;5.40;;;;;;;;;;4905897;29;20043;-70
2022/03/02 13:12:54;;;;;;;9.35;4.88;;;;;;;;;;4889557;29;20418;-70
2022/03/02 13:15:30;;;;;;;7.90;5.30;;;;;;;;;;4905348;29;20469;-70
2022/03/02 13:18:11;;;;;;;9.02;5.20;;;;;;;;;;4905330;29;20032;-70
2022/03/02 13:20:42;;;;;;;6.85;4.78;;;;;;;;;;4903875;29;20127;-69
2022/03/02 13:23:24;;;;;;;5.22;4.38;;;;;;;;;;4901296;29;20600;-69
2022/03/02 13:25:55;;;;;;;8.33;4.83;;;;;;;;;;4904194;29;20111;-70
2022/03/02 13:28:22;;;;;;;6.03;4.60;;;;;;;;;;4909308;29;20040;-67
2022/03/02 13:31:16;;;;;;;7.32;5.10;;;;;;;;;;4904803;29;20038;-69
2022/03/02 13:33:51;;;;;;;6.15;4.55;;;;;;;;;;4905009;29;20390;-68
2022/03/02 13:36:37;;;;;;;6.38;4.68;;;;;;;;;;4904905;29;20032;-68
2022/03/02 13:39:06;;;;;;;13.13;4.38;;;;;;;;;;4904590;29;20099;-68
2022/03/02 13:41:51;;;;;;;5.63;4.30;;;;;;;;;;4887289;29;20536;-68
2022/03/02 13:44:35;;;;;;;5.82;4.20;;;;;;;;;;4903862;29;20044;-68
2022/03/02 13:47:13;;;;;;;5.20;4.15;;;;;;;;;;4903779;29;20068;-69
2022/03/02 13:52:18;;;;;;;6.53;4.40;;;;;;;;;;4913173;29;20063;-69
2022/03/02 13:54:43;;;;;;;8.55;4.78;;;;;;;;;;4908140;29;20044;-68
2022/03/02 13:57:21;;;;;;;8.10;4.63;;;;;;;;;;4904323;29;20035;-69
2022/03/02 13:59:47;;;;;;;9.73;4.63;;;;;;;;;;4908031;29;20035;-69
2022/03/02 14:02:12;;;;;;;4.60;4.15;;;;;;;;;;4916044;29;20040;-69
2022/03/02 14:04:46;;;;;;;6.38;4.40;;;;;;;;;;4916526;29;20051;-70
2022/03/02 14:07:13;;;;;;;7.60;4.30;;;;;;;;;;4892878;29;20044;-69
2022/03/02 14:09:39;;;;;;;9.38;4.78;;;;;;;;;;4905195;29;20040;-69
2022/03/02 14:12:07;;;;;;;7.20;4.18;;;;;;;;;;4901233;29;20043;-69
2022/03/02 14:14:34;;;;;;;14.80;5.05;;;;;;;;;;4910465;29;20560;-69
2022/03/02 14:17:07;;;;;;;7.05;4.82;;;;;;;;;;4902587;29;20040;-70
2022/03/02 14:19:43;;;;;;;7.50;4.60;;;;;;;;;;4902499;29;20600;-69
2022/03/02 14:22:13;;;;;;;9.60;4.90;;;;;;;;;;4903405;29;20036;-69
2022/03/02 14:24:41;;;;;;;8.48;4.97;;;;;;;;;;4904964;29;20039;-69
2022/03/02 14:27:14;;;;;;;10.15;4.90;;;;;;;;;;4904789;29;20126;-69
2022/03/02 14:29:50;;;;;;;7.70;4.30;;;;;;;;;;4905274;29;20043;-69
2022/03/02 14:32:18;;;;;;;7.05;4.68;;;;;;;;;;4904239;29;20087;-69
2022/03/02 14:34:48;;;;;;;6.43;4.90;;;;;;;;;;4905079;29;20036;-69
2022/03/02 14:37:23;;;;;;;7.07;4.63;;;;;;;;;;4905011;29;20119;-70
2022/03/02 14:39:57;;;;;;;9.35;4.55;;;;;;;;;;4906299;29;20044;-69
2022/03/02 14:42:23;;;;;;;8.18;5.05;;;;;;;;;;4910730;29;20058;-69
2022/03/02 14:45:09;;;;;;;5.95;4.32;;;;;;;;;;4913885;29;20477;-69
2022/03/02 14:47:35;;;;;;;6.68;4.55;;;;;;;;;;4907783;29;20060;-69
2022/03/02 14:50:02;;;;;;;8.35;4.75;;;;;;;;;;4908486;29;20482;-70
2022/03/02 14:52:33;;;;;;;12.98;4.97;;;;;;;;;;4908506;29;20125;-69
2022/03/02 14:54:59;;;;;;;8.70;4.70;;;;;;;;;;4909814;29;20067;-69
2022/03/02 14:57:25;;;;;;;7.45;4.63;;;;;;;;;;4908401;29;20039;-70
2022/03/02 14:59:52;;;;;;;9.30;5.32;;;;;;;;;;4908481;29;20071;-69
2022/03/02 15:02:18;;;;;;;6.50;4.65;;;;;;;;;;4908287;29;20059;-70
2022/03/02 15:04:58;;;;;;;8.07;5.05;;;;;;;;;;4908478;29;20048;-69
2022/03/02 15:07:44;;;;;;;8.38;4.85;;;;;;;;;;4912899;29;20039;-70
2022/03/02 15:10:16;;;;;;;6.45;4.95;;;;;;;;;;4908248;29;20048;-69